createdAt,value
2023-01-04T00:01:15.305Z,8.36
2023-01-04T00:04:20.516Z,8.52
2023-01-04T00:07:24.291Z,8.92
2023-01-04T00:10:28.197Z,9.00
2023-01-04T00:13:32.531Z,8.24
2023-01-04T00:16:36.231Z,7.69
2023-01-04T00:19:41.475Z,8.13
2023-01-04T00:22:45.423Z,8.56
2023-01-04T00:25:48.971Z,8.73
2023-01-04T00:28:56.460Z,8.81
2023-01-04T00:32:00.046Z,9.00
2023-01-04T00:35:05.467Z,8.96
2023-01-04T00:38:09.038Z,9.18
2023-01-04T00:41:56.837Z,9.08
2023-01-04T00:44:37.776Z,8.99
2023-01-04T00:47:41.425Z,8.76
2023-01-04T00:50:47.410Z,8.85
2023-01-04T00:53:51.039Z,8.96
2023-01-04T00:56:55.297Z,9.09
2023-01-04T00:59:59.125Z,9.01
2023-01-04T01:03:02.980Z,8.89
2023-01-04T01:06:09.719Z,8.79
2023-01-04T01:09:13.867Z,8.47
2023-01-04T01:12:17.709Z,8.65
2023-01-04T01:15:21.307Z,8.47
2023-01-04T01:18:24.949Z,8.60
2023-01-04T01:21:32.352Z,8.58
2023-01-04T01:24:35.874Z,8.52
2023-01-04T01:27:39.399Z,8.24
2023-01-04T01:30:44.300Z,8.49
2023-01-04T01:33:49.410Z,8.34
2023-01-04T01:36:54.600Z,8.27
2023-01-04T01:39:58.218Z,8.62
2023-01-04T01:43:01.758Z,8.38
2023-01-04T01:46:05.627Z,8.59
2023-01-04T01:49:16.176Z,8.46
2023-01-04T01:52:27.052Z,8.09
2023-01-04T01:55:33.658Z,8.59
2023-01-04T01:58:40.899Z,8.45
2023-01-04T02:01:45.314Z,8.66
2023-01-04T02:04:52.688Z,8.44
2023-01-04T02:07:57.699Z,8.55
2023-01-04T02:11:01.437Z,8.46
2023-01-04T02:14:24.097Z,8.23
2023-01-04T02:17:38.811Z,8.25
2023-01-04T02:20:49.298Z,8.33
2023-01-04T02:24:22.021Z,7.87
2023-01-04T02:27:42.777Z,8.27
2023-01-04T02:31:31.363Z,8.13
2023-01-04T02:34:45.183Z,7.94
2023-01-04T02:37:59.913Z,8.14
2023-01-04T02:41:09.998Z,8.09
2023-01-04T02:44:34.589Z,8.15
2023-01-04T02:47:58.183Z,8.02
2023-01-04T02:51:02.452Z,7.86
2023-01-04T02:54:10.132Z,8.06
2023-01-04T02:57:34.468Z,7.85
2023-01-04T03:01:09.933Z,7.90
2023-01-04T03:04:46.864Z,7.66
2023-01-04T03:07:56.239Z,7.77
2023-01-04T03:11:04.574Z,7.29
2023-01-04T03:14:31.552Z,7.33
2023-01-04T03:17:42.748Z,7.39
2023-01-04T03:20:50.274Z,7.56
2023-01-04T03:24:16.673Z,7.56
2023-01-04T03:27:39.577Z,7.44
2023-01-04T03:31:10.492Z,7.54
2023-01-04T03:34:31.661Z,7.24
2023-01-04T03:37:45.964Z,7.11
2023-01-04T03:41:15.511Z,6.76
2023-01-04T03:44:47.667Z,6.84
2023-01-04T03:48:16.870Z,6.63
2023-01-04T03:51:25.256Z,6.55
2023-01-04T03:54:33.236Z,6.48
2023-01-04T03:57:38.211Z,6.63
2023-01-04T04:00:41.772Z,6.79
2023-01-04T04:04:02.795Z,6.86
2023-01-04T04:07:23.912Z,6.63
2023-01-04T04:10:29.045Z,6.52
2023-01-04T04:13:32.738Z,6.47
2023-01-04T04:16:36.356Z,6.25
2023-01-04T04:19:40.099Z,6.41
2023-01-04T04:22:43.833Z,6.67
2023-01-04T04:25:48.956Z,6.51
2023-01-04T04:28:52.799Z,6.65
2023-01-04T04:31:56.637Z,6.87
2023-01-04T04:35:00.279Z,6.77
2023-01-04T04:38:04.193Z,6.72
2023-01-04T04:41:28.144Z,6.87
2023-01-04T04:44:31.777Z,6.67
2023-01-04T04:47:35.383Z,6.65
2023-01-04T04:50:38.934Z,6.59
2023-01-04T04:53:42.634Z,6.65
2023-01-04T04:56:48.126Z,6.55
2023-01-04T04:59:51.682Z,6.52
2023-01-04T05:02:55.423Z,6.48
2023-01-04T05:05:59.338Z,6.01
2023-01-04T05:09:03.082Z,6.38
2023-01-04T05:12:25.950Z,6.32
2023-01-04T05:15:33.624Z,6.80
2023-01-04T05:18:38.100Z,6.91
2023-01-04T05:21:42.243Z,6.58
2023-01-04T05:24:45.875Z,6.76
2023-01-04T05:27:51.983Z,6.73
2023-01-04T05:30:56.123Z,6.67
2023-01-04T05:33:59.799Z,6.66
2023-01-04T05:37:03.448Z,6.71
2023-01-04T05:40:07.765Z,6.76
2023-01-04T05:43:13.953Z,6.60
2023-01-04T05:46:17.603Z,6.68
2023-01-04T05:49:21.324Z,6.81
2023-01-04T05:52:25.025Z,6.47
2023-01-04T05:55:28.796Z,6.63
2023-01-04T05:58:34.127Z,7.01
2023-01-04T06:01:37.971Z,6.91
2023-01-04T06:04:41.966Z,6.81
2023-01-04T06:07:46.160Z,6.81
2023-01-04T06:10:54.699Z,6.67
2023-01-04T06:14:00.002Z,6.75
2023-01-04T06:17:03.886Z,6.60
2023-01-04T06:20:09.892Z,6.75
2023-01-04T06:23:14.399Z,7.00
2023-01-04T06:26:18.106Z,7.35
2023-01-04T06:29:24.658Z,7.43
2023-01-04T06:32:28.790Z,7.86
2023-01-04T06:35:32.525Z,8.23
2023-01-04T06:38:36.363Z,8.17
2023-01-04T06:41:40.504Z,8.00
2023-01-04T06:44:46.130Z,8.30
2023-01-04T06:47:49.904Z,8.49
2023-01-04T06:50:53.539Z,8.07
2023-01-04T06:53:57.394Z,8.04
2023-01-04T06:57:01.671Z,8.18
2023-01-04T07:00:09.879Z,7.85
2023-01-04T07:03:15.972Z,7.82
2023-01-04T07:06:20.103Z,7.93
2023-01-04T07:09:23.749Z,7.99
2023-01-04T07:12:27.628Z,7.96
2023-01-04T07:15:38.028Z,7.89
2023-01-04T07:18:43.686Z,7.87
2023-01-04T07:21:47.531Z,7.91
2023-01-04T07:24:51.407Z,8.04
2023-01-04T07:27:56.095Z,8.45
2023-01-04T07:31:06.036Z,8.80
2023-01-04T07:34:09.996Z,9.26
2023-01-04T07:37:15.740Z,9.53
2023-01-04T07:40:19.932Z,9.85
2023-01-04T07:43:27.981Z,10.39
2023-01-04T07:46:34.633Z,10.68
2023-01-04T07:49:38.628Z,10.97
2023-01-04T07:52:42.390Z,11.30
2023-01-04T07:55:46.487Z,11.42
2023-01-04T07:58:50.349Z,11.52
2023-01-04T08:01:55.697Z,11.76
2023-01-04T08:04:59.715Z,12.36
2023-01-04T08:08:03.664Z,12.37
2023-01-04T08:11:09.316Z,12.80
2023-01-04T08:14:13.657Z,12.90
2023-01-04T08:17:18.855Z,13.11
2023-01-04T08:20:22.646Z,12.98
2023-01-04T08:23:26.591Z,13.27
2023-01-04T08:26:31.059Z,13.41
2023-01-04T08:29:35.529Z,13.13
2023-01-04T08:32:41.206Z,13.59
2023-01-04T08:35:45.178Z,13.82
2023-01-04T08:38:59.834Z,14.05
2023-01-04T08:42:18.820Z,14.46
2023-01-04T08:45:26.289Z,14.66
2023-01-04T08:48:31.640Z,14.87
2023-01-04T08:51:35.777Z,15.09
2023-01-04T08:54:39.448Z,15.22
2023-01-04T08:57:43.470Z,15.39
2023-01-04T09:00:47.279Z,15.57
2023-01-04T09:03:52.550Z,15.64
2023-01-04T09:06:56.297Z,15.69
2023-01-04T09:10:01.032Z,15.83
2023-01-04T09:13:04.848Z,16.16
2023-01-04T09:16:11.280Z,16.51
2023-01-04T09:19:21.601Z,16.86
2023-01-04T09:22:26.167Z,16.94
2023-01-04T09:25:30.046Z,16.89
2023-01-04T09:28:33.874Z,17.00
2023-01-04T09:31:37.868Z,17.26
2023-01-04T09:34:43.146Z,17.63
2023-01-04T09:37:46.990Z,17.88
2023-01-04T09:40:56.487Z,18.12
2023-01-04T09:44:04.128Z,17.95
2023-01-04T09:47:12.720Z,18.10
2023-01-04T09:50:22.768Z,17.92
2023-01-04T09:53:30.635Z,17.94
2023-01-04T09:56:37.369Z,17.61
2023-01-04T09:59:41.630Z,17.44
2023-01-04T10:02:51.319Z,17.56
2023-01-04T10:05:58.333Z,17.27
2023-01-04T10:09:05.815Z,17.37
2023-01-04T10:12:23.417Z,17.55
2023-01-04T10:15:37.298Z,17.67
2023-01-04T10:22:27.279Z,18.06
2023-01-04T10:25:35.145Z,17.68
2023-01-04T10:28:55.128Z,18.38
2023-01-04T10:32:05.673Z,18.26
2023-01-04T10:35:19.577Z,18.25
2023-01-04T10:38:28.556Z,18.43
2023-01-04T10:41:38.932Z,18.67
2023-01-04T10:44:53.539Z,18.60
2023-01-04T10:48:04.945Z,18.63
2023-01-04T10:51:10.666Z,18.81
2023-01-04T10:54:26.969Z,18.61
2023-01-04T10:57:37.836Z,18.23
2023-01-04T11:00:47.090Z,18.59
2023-01-04T11:03:57.327Z,18.49
2023-01-04T11:07:07.805Z,18.51
2023-01-04T11:10:19.187Z,18.80
2023-01-04T11:13:24.236Z,18.85
2023-01-04T11:16:29.480Z,19.00
2023-01-04T11:19:35.607Z,19.21
2023-01-04T11:22:43.792Z,18.71
2023-01-04T11:25:56.147Z,18.64
2023-01-04T11:29:06.061Z,18.86
2023-01-04T11:32:18.739Z,18.92
2023-01-04T11:35:42.877Z,18.46
2023-01-04T11:38:57.285Z,18.83
2023-01-04T11:42:04.895Z,18.81
2023-01-04T11:45:18.068Z,18.84
2023-01-04T11:48:34.485Z,18.99
2023-01-04T11:51:41.371Z,19.15
2023-01-04T11:54:45.165Z,18.99
2023-01-04T11:58:06.541Z,18.92
2023-01-04T12:01:22.668Z,18.89
2023-01-04T12:04:32.514Z,18.73
2023-01-04T12:07:39.208Z,18.35
2023-01-04T12:10:44.339Z,18.13
2023-01-04T12:13:49.698Z,18.40
2023-01-04T12:16:58.970Z,17.91
2023-01-04T12:20:06.405Z,17.88
2023-01-04T12:23:11.225Z,18.14
2023-01-04T12:26:16.277Z,18.08
2023-01-04T12:29:59.348Z,18.30
2023-01-04T12:33:39.442Z,17.99
2023-01-04T12:37:05.552Z,18.25
2023-01-04T12:40:42.961Z,17.96
2023-01-04T12:43:47.884Z,17.84
2023-01-04T12:47:11.851Z,17.87
2023-01-04T12:50:17.020Z,17.94
2023-01-04T12:53:51.392Z,18.08
2023-01-04T12:57:37.217Z,17.77
2023-01-04T13:01:18.366Z,17.63
2023-01-04T13:04:40.374Z,17.88
2023-01-04T13:07:46.480Z,17.85
2023-01-04T13:10:52.506Z,17.95
2023-01-04T13:14:01.696Z,18.04
2023-01-04T13:17:16.650Z,17.93
2023-01-04T13:20:24.312Z,17.85
2023-01-04T13:23:29.240Z,17.73
2023-01-04T13:26:40.542Z,17.84
2023-01-04T13:29:44.644Z,17.75
2023-01-04T13:33:24.372Z,17.81
2023-01-04T13:36:14.719Z,17.61
2023-01-04T13:39:18.547Z,17.62
2023-01-04T13:42:28.711Z,17.43
2023-01-04T13:45:47.572Z,17.03
2023-01-04T13:48:55.341Z,17.15
2023-01-04T13:52:44.753Z,17.21
2023-01-04T13:55:40.587Z,17.09
2023-01-04T13:58:45.504Z,16.96
2023-01-04T14:01:50.352Z,16.95
2023-01-04T14:04:54.687Z,16.71
2023-01-04T14:08:00.055Z,16.51
2023-01-04T14:11:07.141Z,16.39
2023-01-04T14:14:30.574Z,16.27
2023-01-04T14:17:38.037Z,16.23
2023-01-04T14:20:43.437Z,16.15
2023-01-04T14:23:48.662Z,16.04
2023-01-04T14:26:52.536Z,16.08
2023-01-04T14:29:56.425Z,16.07
2023-01-04T14:33:02.423Z,16.01
2023-01-04T14:36:14.069Z,15.91
2023-01-04T14:39:35.844Z,15.74
2023-01-04T14:42:39.578Z,15.82
2023-01-04T14:45:43.427Z,15.76
2023-01-04T14:48:47.370Z,15.75
2023-01-04T14:51:53.832Z,15.73
2023-01-04T14:54:59.586Z,15.73
2023-01-04T14:58:03.360Z,15.70
2023-01-04T15:01:07.154Z,15.62
2023-01-04T15:04:11.240Z,15.43
2023-01-04T15:07:35.694Z,15.39
2023-01-04T15:10:41.096Z,15.36
2023-01-04T15:13:45.058Z,15.26
2023-01-04T15:16:49.405Z,15.22
2023-01-04T15:19:53.200Z,15.13
2023-01-04T15:22:56.931Z,14.98
2023-01-04T15:26:02.289Z,14.99
2023-01-04T15:29:07.072Z,14.86
2023-01-04T15:32:10.939Z,14.89
2023-01-04T15:35:17.469Z,14.87
2023-01-04T15:38:21.335Z,14.79
2023-01-04T15:41:43.697Z,14.74
2023-01-04T15:44:47.470Z,14.58
2023-01-04T15:47:51.639Z,14.36
2023-01-04T15:50:55.517Z,14.38
2023-01-04T15:53:59.454Z,14.34
2023-01-04T15:57:04.663Z,14.28
2023-01-04T16:00:09.709Z,14.31
2023-01-04T16:03:15.759Z,14.40
2023-01-04T16:06:20.229Z,14.48
2023-01-04T16:09:24.049Z,14.41
2023-01-04T16:12:54.712Z,14.32
2023-01-04T16:16:02.911Z,14.23
2023-01-04T16:19:08.527Z,14.28
2023-01-04T16:22:12.430Z,14.25
2023-01-04T16:25:16.333Z,14.32
2023-01-04T16:28:21.586Z,14.35
2023-01-04T16:31:25.572Z,14.32
2023-01-04T16:34:29.527Z,14.31
2023-01-04T16:37:33.478Z,14.29
2023-01-04T16:40:37.208Z,14.22
2023-01-04T16:43:47.926Z,14.31
2023-01-04T16:46:51.768Z,14.17
2023-01-04T16:49:55.704Z,14.21
2023-01-04T16:52:59.667Z,14.14
2023-01-04T16:56:04.970Z,13.59
2023-01-04T16:59:11.619Z,13.88
2023-01-04T17:02:15.564Z,14.01
2023-01-04T17:05:19.429Z,13.73
2023-01-04T17:08:27.020Z,13.85
2023-01-04T17:15:40.741Z,13.89
2023-01-04T17:18:22.862Z,13.80
2023-01-04T17:21:35.831Z,13.97
2023-01-04T17:24:39.849Z,13.88
2023-01-04T17:27:44.681Z,13.83
2023-01-04T17:30:49.851Z,13.65
2023-01-04T17:33:54.241Z,13.82
2023-01-04T17:36:57.957Z,13.87
2023-01-04T17:40:01.781Z,13.93
2023-01-04T17:43:05.649Z,13.89
2023-01-04T17:46:16.369Z,13.96
2023-01-04T17:49:31.058Z,13.93
2023-01-04T17:52:35.789Z,13.77
2023-01-04T17:55:39.539Z,13.79
2023-01-04T17:58:43.483Z,13.62
2023-01-04T18:01:48.968Z,13.52
2023-01-04T18:04:53.134Z,13.61
2023-01-04T18:07:56.953Z,13.55
2023-01-04T18:11:09.723Z,13.52
2023-01-04T18:14:14.695Z,13.69
2023-01-04T18:17:20.435Z,13.76
2023-01-04T18:20:25.249Z,13.82
2023-01-04T18:23:31.150Z,13.91
2023-01-04T18:26:53.554Z,13.93
2023-01-04T18:29:59.652Z,13.93
2023-01-04T18:33:05.504Z,13.96
2023-01-04T18:36:10.345Z,13.90
2023-01-04T18:39:15.415Z,13.97
2023-01-04T18:42:19.252Z,13.43
2023-01-04T18:45:23.069Z,13.78
2023-01-04T18:48:28.379Z,13.84
2023-01-04T18:51:32.171Z,13.86
2023-01-04T18:54:35.863Z,13.90
2023-01-04T18:57:39.856Z,13.75
2023-01-04T19:00:43.561Z,13.72
2023-01-04T19:03:50.335Z,13.51
2023-01-04T19:06:54.168Z,13.69
2023-01-04T19:09:57.924Z,13.49
2023-01-04T19:13:01.807Z,13.42
2023-01-04T19:16:09.126Z,13.62
2023-01-04T19:19:14.477Z,13.57
2023-01-04T19:22:18.415Z,13.43
2023-01-04T19:25:27.987Z,13.36
2023-01-04T19:28:32.353Z,13.33
2023-01-04T19:31:37.808Z,13.24
2023-01-04T19:34:43.029Z,13.13
2023-01-04T19:37:46.819Z,12.91
2023-01-04T19:40:56.739Z,13.21
2023-01-04T19:44:00.496Z,12.95
2023-01-04T19:47:04.563Z,12.95
2023-01-04T19:50:10.361Z,13.00
2023-01-04T19:53:14.618Z,12.97
2023-01-04T19:56:18.619Z,13.10
2023-01-04T19:59:22.376Z,13.13
2023-01-04T20:02:26.624Z,13.03
2023-01-04T20:05:31.949Z,12.88
2023-01-04T20:08:36.509Z,13.37
2023-01-04T20:11:40.392Z,13.19
2023-01-04T20:14:44.296Z,13.31
2023-01-04T20:17:48.077Z,12.94
2023-01-04T20:20:53.966Z,12.81
2023-01-04T20:23:58.672Z,12.74
2023-01-04T20:27:02.505Z,12.86
2023-01-04T20:30:07.251Z,12.82
2023-01-04T20:33:11.876Z,12.86
2023-01-04T20:36:18.679Z,12.82
2023-01-04T20:39:22.581Z,13.08
2023-01-04T20:42:43.659Z,12.90
2023-01-04T20:45:49.632Z,12.46
2023-01-04T20:48:53.949Z,12.46
2023-01-04T20:51:59.270Z,12.53
2023-01-04T20:55:03.058Z,12.74
2023-01-04T20:58:06.746Z,13.02
2023-01-04T21:01:10.728Z,13.02
2023-01-04T21:04:17.942Z,13.01
2023-01-04T21:07:23.332Z,13.07
2023-01-04T21:10:27.141Z,13.01
2023-01-04T21:13:31.009Z,12.97
2023-01-04T21:16:34.849Z,12.84
2023-01-04T21:19:38.780Z,12.88
2023-01-04T21:22:44.057Z,12.93
2023-01-04T21:25:49.657Z,12.79
2023-01-04T21:28:53.437Z,12.50
2023-01-04T21:31:57.214Z,12.77
2023-01-04T21:35:00.991Z,12.74
2023-01-04T21:38:06.456Z,12.82
2023-01-04T21:41:11.305Z,12.88
2023-01-04T21:44:15.110Z,12.73
2023-01-04T21:47:19.059Z,12.83
2023-01-04T21:50:22.888Z,12.92
2023-01-04T21:53:29.878Z,12.90
2023-01-04T21:56:33.709Z,12.97
2023-01-04T21:59:37.998Z,13.02
2023-01-04T22:02:43.904Z,12.93
2023-01-04T22:05:47.931Z,13.01
2023-01-04T22:08:53.633Z,12.74
2023-01-04T22:11:57.553Z,12.91
2023-01-04T22:15:01.369Z,12.75
2023-01-04T22:18:05.482Z,12.56
2023-01-04T22:21:13.317Z,12.79
2023-01-04T22:24:18.580Z,12.60
2023-01-04T22:27:22.460Z,12.75
2023-01-04T22:30:26.191Z,12.74
2023-01-04T22:33:30.054Z,12.71
2023-01-04T22:36:33.791Z,12.61
2023-01-04T22:39:39.119Z,12.61
2023-01-04T22:42:43.648Z,12.71
2023-01-04T22:45:47.565Z,12.69
2023-01-04T22:48:51.344Z,12.73
2023-01-04T22:51:56.525Z,12.68
2023-01-04T22:55:01.823Z,12.62
2023-01-04T22:58:05.639Z,12.57
2023-01-04T23:01:10.425Z,12.64
2023-01-04T23:04:17.597Z,12.59
2023-01-04T23:07:21.475Z,12.57
2023-01-04T23:10:26.807Z,12.37
2023-01-04T23:13:30.500Z,12.44
2023-01-04T23:16:34.390Z,12.40
2023-01-04T23:19:38.278Z,12.48
2023-01-04T23:22:43.548Z,12.53
2023-01-04T23:25:48.756Z,12.36
2023-01-04T23:28:53.235Z,12.27
2023-01-04T23:31:57.098Z,12.17
2023-01-04T23:35:00.966Z,12.23
2023-01-04T23:38:07.506Z,12.36
2023-01-04T23:41:13.385Z,12.25
2023-01-04T23:44:20.048Z,12.13
2023-01-04T23:47:23.898Z,12.04
2023-01-04T23:50:27.735Z,12.17
2023-01-04T23:53:31.925Z,12.19
2023-01-04T23:56:38.168Z,12.36
2023-01-04T23:59:42.037Z,12.33
